createdAt,value
2019-06-01T00:00:11.340Z,17.56
2019-06-01T00:01:07.361Z,17.54
2019-06-01T00:02:07.291Z,17.58
2019-06-01T00:03:07.209Z,17.55
2019-06-01T00:04:07.123Z,17.54
2019-06-01T00:05:07.061Z,17.58
2019-06-01T00:06:06.962Z,17.55
2019-06-01T00:07:06.888Z,17.49
2019-06-01T00:08:06.812Z,17.54
2019-06-01T00:09:06.724Z,17.56
2019-06-01T00:10:06.651Z,17.54
2019-06-01T00:11:06.575Z,17.55
2019-06-01T00:12:06.494Z,17.49
2019-06-01T00:13:06.413Z,17.52
2019-06-01T00:14:06.329Z,17.46
2019-06-01T00:15:06.251Z,17.49
2019-06-01T00:16:06.164Z,17.43
2019-06-01T00:17:06.091Z,17.44
2019-06-01T00:18:05.999Z,17.40
2019-06-01T00:19:05.925Z,17.48
2019-06-01T00:20:05.851Z,17.26
2019-06-01T00:21:05.774Z,17.31
2019-06-01T00:22:05.686Z,17.28
2019-06-01T00:23:05.619Z,17.31
2019-06-01T00:24:05.525Z,17.22
2019-06-01T00:25:05.452Z,17.33
2019-06-01T00:26:05.379Z,17.25
2019-06-01T00:27:05.291Z,17.25
2019-06-01T00:28:05.212Z,17.23
2019-06-01T00:29:05.138Z,17.23
2019-06-01T00:30:05.068Z,17.21
2019-06-01T00:31:04.976Z,17.18
2019-06-01T00:32:04.900Z,17.12
2019-06-01T00:33:04.812Z,17.07
2019-06-01T00:34:04.739Z,17.11
2019-06-01T00:35:04.667Z,17.07
2019-06-01T00:36:04.578Z,17.07
2019-06-01T00:37:04.502Z,17.08
2019-06-01T00:38:04.426Z,17.14
2019-06-01T00:39:04.339Z,17.07
2019-06-01T00:40:04.267Z,17.07
2019-06-01T00:41:04.196Z,17.08
2019-06-01T00:42:04.102Z,17.06
2019-06-01T00:43:04.030Z,17.06
2019-06-01T00:44:03.940Z,17.07
2019-06-01T00:45:03.863Z,17.00
2019-06-01T00:46:03.789Z,16.98
2019-06-01T00:47:03.704Z,16.91
2019-06-01T00:48:03.627Z,16.88
2019-06-01T00:49:03.558Z,16.96
2019-06-01T00:50:03.465Z,16.94
2019-06-01T00:51:03.390Z,16.98
2019-06-01T00:52:03.327Z,17.04
2019-06-01T00:53:03.243Z,16.98
2019-06-01T00:54:03.168Z,16.96
2019-06-01T00:55:03.093Z,16.94
2019-06-01T00:56:03.005Z,16.97
2019-06-01T00:57:02.930Z,16.88
2019-06-01T00:58:02.855Z,16.89
2019-06-01T00:59:02.767Z,17.01
2019-06-01T01:00:02.693Z,16.93
2019-06-01T01:01:02.617Z,16.88
2019-06-01T01:02:02.533Z,16.83
2019-06-01T01:03:02.467Z,16.85
2019-06-01T01:04:02.368Z,16.79
2019-06-01T01:05:02.293Z,16.76
2019-06-01T01:06:02.224Z,16.81
2019-06-01T01:07:02.131Z,16.88
2019-06-01T01:08:02.069Z,16.70
2019-06-01T01:09:01.985Z,16.68
2019-06-01T01:10:01.893Z,16.76
2019-06-01T01:11:01.819Z,16.68
2019-06-01T01:12:01.744Z,16.68
2019-06-01T01:13:01.656Z,16.71
2019-06-01T01:14:01.580Z,16.75
2019-06-01T01:15:01.618Z,16.70
2019-06-01T01:16:01.419Z,16.66
2019-06-01T01:17:01.344Z,16.61
2019-06-01T01:18:01.258Z,16.58
2019-06-01T01:19:01.181Z,16.57
2019-06-01T01:20:01.106Z,16.60
2019-06-01T01:21:01.021Z,16.61
2019-06-01T01:22:00.951Z,16.60
2019-06-01T01:23:00.873Z,16.48
2019-06-01T01:24:00.782Z,16.46
2019-06-01T01:25:00.707Z,16.46
2019-06-01T01:26:00.634Z,16.46
2019-06-01T01:27:00.557Z,16.48
2019-06-01T01:28:00.473Z,16.50
2019-06-01T01:29:00.384Z,16.50
2019-06-01T01:30:00.309Z,16.52
2019-06-01T01:31:11.698Z,16.53
2019-06-01T01:32:00.147Z,16.50
2019-06-01T01:33:00.070Z,16.41
2019-06-01T01:34:00.000Z,16.31
2019-06-01T01:34:59.921Z,16.45
2019-06-01T01:35:59.833Z,16.43
2019-06-01T01:36:59.760Z,16.43
2019-06-01T01:37:59.671Z,16.41
2019-06-01T01:38:59.600Z,16.34
2019-06-01T01:39:59.511Z,16.46
2019-06-01T01:40:59.544Z,16.46
2019-06-01T01:41:59.359Z,16.35
2019-06-01T01:42:59.274Z,16.39
2019-06-01T01:43:59.197Z,16.27
2019-06-01T01:44:59.121Z,16.35
2019-06-01T01:45:59.089Z,16.33
2019-06-01T01:46:59.067Z,16.20
2019-06-01T01:47:59.226Z,16.35
2019-06-01T01:48:58.798Z,16.25
2019-06-01T01:49:58.722Z,16.23
2019-06-01T01:50:58.679Z,16.15
2019-06-01T01:51:59.445Z,16.23
2019-06-01T01:52:59.002Z,16.24
2019-06-01T01:53:58.803Z,16.28
2019-06-01T01:54:58.940Z,16.24
2019-06-01T01:55:59.064Z,16.23
2019-06-01T01:56:58.250Z,16.28
2019-06-01T01:57:59.412Z,16.23
2019-06-01T01:58:58.428Z,16.21
2019-06-01T01:59:57.928Z,16.27
2019-06-01T02:00:58.526Z,16.34
2019-06-01T02:01:58.587Z,16.25
2019-06-01T02:02:57.985Z,16.24
2019-06-01T02:03:58.962Z,16.23
2019-06-01T02:04:57.832Z,16.21
2019-06-01T02:05:57.452Z,16.24
2019-06-01T02:06:58.443Z,16.25
2019-06-01T02:07:57.287Z,16.17
2019-06-01T02:08:57.213Z,16.15
2019-06-01T02:09:57.216Z,16.11
2019-06-01T02:10:57.456Z,16.08
2019-06-01T02:11:57.688Z,16.08
2019-06-01T02:12:57.546Z,16.11
2019-06-01T02:13:57.759Z,16.21
2019-06-01T02:14:57.680Z,16.23
2019-06-01T02:15:58.151Z,16.15
2019-06-01T02:16:58.006Z,16.23
2019-06-01T02:17:56.489Z,16.11
2019-06-01T02:18:57.521Z,16.09
2019-06-01T02:19:56.337Z,16.14
2019-06-01T02:20:56.282Z,16.20
2019-06-01T02:21:56.464Z,16.09
2019-06-01T02:22:56.765Z,16.09
2019-06-01T02:23:56.931Z,16.15
2019-06-01T02:24:55.938Z,16.12
2019-06-01T02:25:56.857Z,16.12
2019-06-01T02:26:57.114Z,16.15
2019-06-01T02:27:57.192Z,16.08
2019-06-01T02:28:55.614Z,16.11
2019-06-01T02:29:55.539Z,16.11
2019-06-01T02:30:56.152Z,16.04
2019-06-01T02:31:56.531Z,16.08
2019-06-01T02:32:56.312Z,16.14
2019-06-01T02:33:56.298Z,16.09
2019-06-01T02:34:56.398Z,16.12
2019-06-01T02:35:56.188Z,16.15
2019-06-01T02:36:56.350Z,16.07
2019-06-01T02:37:56.106Z,16.07
2019-06-01T02:38:56.414Z,16.14
2019-06-01T02:39:56.330Z,16.11
2019-06-01T02:40:54.880Z,16.12
2019-06-01T02:41:54.923Z,16.04
2019-06-01T02:42:55.019Z,16.20
2019-06-01T02:43:54.767Z,16.08
2019-06-01T02:44:55.076Z,16.04
2019-06-01T02:45:54.257Z,16.14
2019-06-01T02:46:55.335Z,16.11
2019-06-01T02:47:55.371Z,16.14
2019-06-01T02:48:55.391Z,16.09
2019-06-01T02:49:55.517Z,16.08
2019-06-01T02:50:55.633Z,16.15
2019-06-01T02:51:53.776Z,16.15
2019-06-01T02:52:53.690Z,16.07
2019-06-01T02:53:53.615Z,16.15
2019-06-01T02:54:53.528Z,16.01
2019-06-01T02:55:53.474Z,16.07
2019-06-01T02:56:53.378Z,16.00
2019-06-01T02:57:53.297Z,16.05
2019-06-01T02:58:53.216Z,15.97
2019-06-01T02:59:53.129Z,16.04
2019-06-01T03:00:53.052Z,16.01
2019-06-01T03:01:57.439Z,16.01
2019-06-01T03:02:52.891Z,16.02
2019-06-01T03:03:52.816Z,15.96
2019-06-01T03:04:52.730Z,16.04
2019-06-01T03:05:52.653Z,16.04
2019-06-01T03:06:52.579Z,16.04
2019-06-01T03:07:52.491Z,16.00
2019-06-01T03:08:52.417Z,16.01
2019-06-01T03:09:52.343Z,15.97
2019-06-01T03:10:52.266Z,15.97
2019-06-01T03:11:52.178Z,15.90
2019-06-01T03:12:52.097Z,15.89
2019-06-01T03:13:52.017Z,15.93
2019-06-01T03:14:51.943Z,16.05
2019-06-01T03:15:51.854Z,16.00
2019-06-01T03:16:51.785Z,16.00
2019-06-01T03:17:51.729Z,15.92
2019-06-01T03:18:51.618Z,15.93
2019-06-01T03:19:51.550Z,15.78
2019-06-01T03:20:51.458Z,15.83
2019-06-01T03:21:51.381Z,15.90
2019-06-01T03:22:51.305Z,15.86
2019-06-01T03:23:51.232Z,15.82
2019-06-01T03:24:51.143Z,15.78
2019-06-01T03:25:51.063Z,15.75
2019-06-01T03:26:50.980Z,15.78
2019-06-01T03:27:50.905Z,15.75
2019-06-01T03:28:50.829Z,15.83
2019-06-01T03:29:50.744Z,15.78
2019-06-01T03:30:50.657Z,15.74
2019-06-01T03:31:50.599Z,15.83
2019-06-01T03:32:50.507Z,15.76
2019-06-01T03:33:50.422Z,15.78
2019-06-01T03:34:50.344Z,15.84
2019-06-01T03:35:50.256Z,15.86
2019-06-01T03:36:50.196Z,15.87
2019-06-01T03:37:50.119Z,15.78
2019-06-01T03:38:50.023Z,15.86
2019-06-01T03:39:49.945Z,15.84
2019-06-01T03:40:49.857Z,15.87
2019-06-01T03:41:49.796Z,15.89
2019-06-01T03:42:49.707Z,15.89
2019-06-01T03:43:49.621Z,15.87
2019-06-01T03:44:49.545Z,15.93
2019-06-01T03:45:49.457Z,15.80
2019-06-01T03:46:49.395Z,15.78
2019-06-01T03:47:49.307Z,15.89
2019-06-01T03:48:49.222Z,15.84
2019-06-01T03:49:49.166Z,15.83
2019-06-01T03:50:49.057Z,15.89
2019-06-01T03:51:48.996Z,15.84
2019-06-01T03:52:48.915Z,15.82
2019-06-01T03:53:48.821Z,15.78
2019-06-01T03:54:48.788Z,15.74
2019-06-01T03:55:48.658Z,15.78
2019-06-01T03:56:48.599Z,15.93
2019-06-01T03:57:48.508Z,15.94
2019-06-01T03:58:48.425Z,15.89
2019-06-01T03:59:48.347Z,15.96
2019-06-01T04:00:48.259Z,15.93
2019-06-01T04:01:48.197Z,15.94
2019-06-01T04:02:48.109Z,15.92
2019-06-01T04:03:48.023Z,15.97
2019-06-01T04:04:47.947Z,16.01
2019-06-01T04:05:47.859Z,16.01
2019-06-01T04:06:47.784Z,16.05
2019-06-01T04:07:47.709Z,16.04
2019-06-01T04:08:47.622Z,16.01
2019-06-01T04:09:47.547Z,16.02
2019-06-01T04:10:47.463Z,16.11
2019-06-01T04:11:47.385Z,16.14
2019-06-01T04:12:47.316Z,16.11
2019-06-01T04:13:47.223Z,16.12
2019-06-01T04:14:47.149Z,16.11
2019-06-01T04:15:47.061Z,16.08
2019-06-01T04:16:46.985Z,16.23
2019-06-01T04:17:46.911Z,16.28
2019-06-01T04:18:46.823Z,16.21
2019-06-01T04:19:46.749Z,16.20
2019-06-01T04:20:46.681Z,16.34
2019-06-01T04:21:46.589Z,16.23
2019-06-01T04:22:46.513Z,16.38
2019-06-01T04:23:46.425Z,16.38
2019-06-01T04:24:46.349Z,16.53
2019-06-01T04:25:46.275Z,16.58
2019-06-01T04:26:46.199Z,16.50
2019-06-01T04:27:46.112Z,16.61
2019-06-01T04:28:46.037Z,16.58
2019-06-01T04:29:45.961Z,16.60
2019-06-01T04:30:45.926Z,16.76
2019-06-01T04:31:45.789Z,16.73
2019-06-01T04:32:49.804Z,16.79
2019-06-01T04:33:45.636Z,16.83
2019-06-01T04:34:45.556Z,16.88
2019-06-01T04:35:45.479Z,16.82
2019-06-01T04:36:45.419Z,16.88
2019-06-01T04:37:45.312Z,17.07
2019-06-01T04:38:45.252Z,17.08
2019-06-01T04:39:45.163Z,17.19
2019-06-01T04:40:45.078Z,17.28
2019-06-01T04:41:45.000Z,17.51
2019-06-01T04:42:44.929Z,17.46
2019-06-01T04:43:44.842Z,17.30
2019-06-01T04:44:44.769Z,17.38
2019-06-01T04:45:44.691Z,17.41
2019-06-01T04:46:44.601Z,17.30
2019-06-01T04:47:44.527Z,17.28
2019-06-01T04:48:44.457Z,17.23
2019-06-01T04:49:44.364Z,17.21
2019-06-01T04:50:44.288Z,17.28
2019-06-01T04:51:44.215Z,17.33
2019-06-01T04:52:44.146Z,17.19
2019-06-01T04:53:44.054Z,17.25
2019-06-01T04:54:43.977Z,17.25
2019-06-01T04:55:43.889Z,17.38
2019-06-01T04:56:43.815Z,17.37
2019-06-01T04:57:43.739Z,17.43
2019-06-01T04:58:43.653Z,17.33
2019-06-01T04:59:43.578Z,17.40
2019-06-01T05:00:43.504Z,17.34
2019-06-01T05:01:43.440Z,17.59
2019-06-01T05:02:43.340Z,17.66
2019-06-01T05:03:43.273Z,17.56
2019-06-01T05:04:43.642Z,17.46
2019-06-01T05:05:43.105Z,17.52
2019-06-01T05:06:43.029Z,17.52
2019-06-01T05:07:42.942Z,17.66
2019-06-01T05:08:42.871Z,17.68
2019-06-01T05:09:42.791Z,17.51
2019-06-01T05:10:42.724Z,17.63
2019-06-01T05:11:42.631Z,17.64
2019-06-01T05:12:42.554Z,17.64
2019-06-01T05:13:42.481Z,17.81
2019-06-01T05:14:42.392Z,17.64
2019-06-01T05:15:42.319Z,17.79
2019-06-01T05:16:42.241Z,17.92
2019-06-01T05:17:42.166Z,17.97
2019-06-01T05:18:42.084Z,18.00
2019-06-01T05:19:42.005Z,17.93
2019-06-01T05:20:41.932Z,17.96
2019-06-01T05:21:41.849Z,18.05
2019-06-01T05:22:41.767Z,18.02
2019-06-01T05:23:41.691Z,18.03
2019-06-01T05:24:41.617Z,17.97
2019-06-01T05:25:41.530Z,18.10
2019-06-01T05:26:41.460Z,18.07
2019-06-01T05:27:41.380Z,18.21
2019-06-01T05:28:41.295Z,18.26
2019-06-01T05:29:41.218Z,18.20
2019-06-01T05:30:41.142Z,18.07
2019-06-01T05:31:41.067Z,18.18
2019-06-01T05:32:40.981Z,18.23
2019-06-01T05:33:40.906Z,18.29
2019-06-01T05:34:40.832Z,18.41
2019-06-01T05:35:40.759Z,18.36
2019-06-01T05:36:40.671Z,18.36
2019-06-01T05:37:40.593Z,18.30
2019-06-01T05:38:40.519Z,18.25
2019-06-01T05:39:40.444Z,18.23
2019-06-01T05:40:40.357Z,18.39
2019-06-01T05:41:40.282Z,18.36
2019-06-01T05:42:40.207Z,18.41
2019-06-01T05:43:40.133Z,18.35
2019-06-01T05:44:40.061Z,18.47
2019-06-01T05:45:39.973Z,18.54
2019-06-01T05:46:39.894Z,18.65
2019-06-01T05:47:39.820Z,18.63
2019-06-01T05:48:39.733Z,18.66
2019-06-01T05:49:39.657Z,18.69
2019-06-01T05:50:39.583Z,18.65
2019-06-01T05:51:39.508Z,18.63
2019-06-01T05:52:39.423Z,18.52
2019-06-01T05:53:39.345Z,18.50
2019-06-01T05:54:39.272Z,18.52
2019-06-01T05:55:39.195Z,18.60
2019-06-01T05:56:39.110Z,18.51
2019-06-01T05:57:39.034Z,18.60
2019-06-01T05:58:38.962Z,18.66
2019-06-01T05:59:38.884Z,18.65
2019-06-01T06:00:38.873Z,18.62
2019-06-01T06:01:38.720Z,18.66
2019-06-01T06:02:38.650Z,18.80
2019-06-01T06:03:40.574Z,18.72
2019-06-01T06:04:38.509Z,18.65
2019-06-01T06:05:38.409Z,18.62
2019-06-01T06:06:38.343Z,18.69
2019-06-01T06:07:38.259Z,18.81
2019-06-01T06:08:38.185Z,18.70
2019-06-01T06:09:38.126Z,18.85
2019-06-01T06:10:38.022Z,18.92
2019-06-01T06:11:37.947Z,18.90
2019-06-01T06:12:37.872Z,18.94
2019-06-01T06:13:37.786Z,18.87
2019-06-01T06:14:37.712Z,18.87
2019-06-01T06:15:37.640Z,19.02
2019-06-01T06:16:37.566Z,19.06
2019-06-01T06:17:37.474Z,19.04
2019-06-01T06:18:37.413Z,19.04
2019-06-01T06:19:37.323Z,19.02
2019-06-01T06:20:37.249Z,18.90
2019-06-01T06:21:37.173Z,19.00
2019-06-01T06:22:37.087Z,19.07
2019-06-01T06:23:37.015Z,19.11
2019-06-01T06:24:36.936Z,19.19
2019-06-01T06:25:39.602Z,19.31
2019-06-01T06:26:36.774Z,19.32
2019-06-01T06:27:36.702Z,19.33
2019-06-01T06:28:36.629Z,19.36
2019-06-01T06:29:36.548Z,19.39
2019-06-01T06:30:36.479Z,19.33
2019-06-01T06:31:36.387Z,19.31
2019-06-01T06:32:36.325Z,19.32
2019-06-01T06:33:36.918Z,19.31
2019-06-01T06:34:36.167Z,19.41
2019-06-01T06:35:36.084Z,19.43
2019-06-01T06:36:36.019Z,19.58
2019-06-01T06:37:35.924Z,19.51
2019-06-01T06:38:35.856Z,19.51
2019-06-01T06:39:35.775Z,19.56
2019-06-01T06:40:35.688Z,19.62
2019-06-01T06:41:35.614Z,19.65
2019-06-01T06:42:35.538Z,19.69
2019-06-01T06:43:35.463Z,19.69
2019-06-01T06:44:35.397Z,19.77
2019-06-01T06:45:35.306Z,19.78
2019-06-01T06:46:35.225Z,19.77
2019-06-01T06:47:35.152Z,19.88
2019-06-01T06:48:35.076Z,19.84
2019-06-01T06:49:35.016Z,19.80
2019-06-01T06:50:34.913Z,19.96
2019-06-01T06:51:34.850Z,20.01
2019-06-01T06:52:34.764Z,20.10
2019-06-01T06:53:35.485Z,20.10
2019-06-01T06:54:34.624Z,20.24
2019-06-01T06:55:34.533Z,20.23
2019-06-01T06:56:34.453Z,20.51
2019-06-01T06:57:34.389Z,20.72
2019-06-01T06:58:34.302Z,20.79
2019-06-01T06:59:34.239Z,20.95
2019-06-01T07:00:34.260Z,21.10
2019-06-01T07:01:34.066Z,20.98
2019-06-01T07:02:34.014Z,21.13
2019-06-01T07:03:33.930Z,21.17
2019-06-01T07:04:33.841Z,21.49
2019-06-01T07:05:33.775Z,21.54
2019-06-01T07:06:33.701Z,21.72
2019-06-01T07:07:33.622Z,21.83
2019-06-01T07:08:33.528Z,21.83
2019-06-01T07:09:33.509Z,21.79
2019-06-01T07:10:33.392Z,21.75
2019-06-01T07:11:33.309Z,21.88
2019-06-01T07:12:33.229Z,21.96
2019-06-01T07:13:33.153Z,21.92
2019-06-01T07:14:33.099Z,21.98
2019-06-01T07:15:33.010Z,22.06
2019-06-01T07:16:32.932Z,22.15
2019-06-01T07:17:32.863Z,22.21
2019-06-01T07:18:32.780Z,22.03
2019-06-01T07:19:32.708Z,21.86
2019-06-01T07:20:32.642Z,21.90
2019-06-01T07:21:36.405Z,21.94
2019-06-01T07:22:32.471Z,21.86
2019-06-01T07:23:32.393Z,21.88
2019-06-01T07:24:32.364Z,21.98
2019-06-01T07:25:33.030Z,22.03
2019-06-01T07:26:32.342Z,22.12
2019-06-01T07:27:32.445Z,22.37
2019-06-01T07:28:32.428Z,22.17
2019-06-01T07:29:32.483Z,22.31
2019-06-01T07:30:36.865Z,22.46
2019-06-01T07:31:32.503Z,22.57
2019-06-01T07:32:32.810Z,22.49
2019-06-01T07:33:32.641Z,22.65
2019-06-01T07:34:41.357Z,22.67
2019-06-01T07:35:32.534Z,22.86
2019-06-01T07:36:32.608Z,23.02
2019-06-01T07:37:31.331Z,23.23
2019-06-01T07:38:31.283Z,22.98
2019-06-01T07:39:31.185Z,22.90
2019-06-01T07:40:31.107Z,22.85
2019-06-01T07:41:31.032Z,22.73
2019-06-01T07:42:30.957Z,22.76
2019-06-01T07:43:30.884Z,22.83
2019-06-01T07:44:30.822Z,22.68
2019-06-01T07:45:33.573Z,22.54
2019-06-01T07:46:30.656Z,22.62
2019-06-01T07:47:30.582Z,22.67
2019-06-01T07:48:30.508Z,22.88
2019-06-01T07:49:31.184Z,23.36
2019-06-01T07:50:30.358Z,23.98
2019-06-01T07:51:31.559Z,24.62
2019-06-01T07:52:30.207Z,25.17
2019-06-01T07:53:31.405Z,25.62
2019-06-01T07:54:30.057Z,25.92
2019-06-01T07:55:29.983Z,26.43
2019-06-01T07:56:29.908Z,26.43
2019-06-01T07:57:29.911Z,26.58
2019-06-01T07:58:29.771Z,26.62
2019-06-01T07:59:30.560Z,26.17
2019-06-01T08:00:29.614Z,25.75
2019-06-01T08:01:30.907Z,25.36
2019-06-01T08:02:30.698Z,25.32
2019-06-01T08:03:32.908Z,25.30
2019-06-01T08:04:31.753Z,25.10
2019-06-01T08:05:30.069Z,25.27
2019-06-01T08:06:31.065Z,25.83
2019-06-01T08:07:29.273Z,25.79
2019-06-01T08:08:29.477Z,26.07
2019-06-01T08:09:29.581Z,26.02
2019-06-01T08:10:29.654Z,26.39
2019-06-01T08:11:32.095Z,26.70
2019-06-01T08:12:29.660Z,27.22
2019-06-01T08:13:33.140Z,27.24
2019-06-01T08:14:28.671Z,27.36
2019-06-01T08:15:29.500Z,27.36
2019-06-01T08:16:29.904Z,27.81
2019-06-01T08:17:28.382Z,27.85
2019-06-01T08:18:28.363Z,28.14
2019-06-01T08:19:28.237Z,28.21
2019-06-01T08:20:28.657Z,28.21
2019-06-01T08:21:28.191Z,28.03
2019-06-01T08:22:28.057Z,27.96
2019-06-01T08:23:28.386Z,28.36
2019-06-01T08:24:28.292Z,27.78
2019-06-01T08:25:28.556Z,27.85
2019-06-01T08:26:28.560Z,27.97
2019-06-01T08:27:28.464Z,28.31
2019-06-01T08:28:28.938Z,28.19
2019-06-01T08:29:28.727Z,28.22
2019-06-01T08:30:28.532Z,27.92
2019-06-01T08:31:28.591Z,27.67
2019-06-01T08:32:28.607Z,27.67
2019-06-01T08:33:30.226Z,27.78
2019-06-01T08:34:27.200Z,27.81
2019-06-01T08:35:27.126Z,27.65
2019-06-01T08:36:27.308Z,27.69
2019-06-01T08:37:27.233Z,27.32
2019-06-01T08:38:27.456Z,27.41
2019-06-01T08:39:27.389Z,27.39
2019-06-01T08:40:27.377Z,27.36
2019-06-01T08:41:27.583Z,27.46
2019-06-01T08:42:27.413Z,27.66
2019-06-01T08:43:27.524Z,27.32
2019-06-01T08:44:27.579Z,27.44
2019-06-01T08:45:27.564Z,27.62
2019-06-01T08:46:27.578Z,27.54
2019-06-01T08:47:27.717Z,27.75
2019-06-01T08:48:26.247Z,27.74
2019-06-01T08:49:26.176Z,27.82
2019-06-01T08:50:26.102Z,28.11
2019-06-01T08:51:26.511Z,28.58
2019-06-01T08:52:26.017Z,28.77
2019-06-01T08:53:25.889Z,28.55
2019-06-01T08:54:25.991Z,28.59
2019-06-01T08:55:26.095Z,28.21
2019-06-01T08:56:26.205Z,28.43
2019-06-01T08:57:26.114Z,28.44
2019-06-01T08:58:26.233Z,28.41
2019-06-01T08:59:26.229Z,27.96
2019-06-01T09:00:26.366Z,27.47
2019-06-01T09:01:26.344Z,27.65
2019-06-01T09:02:26.492Z,27.28
2019-06-01T09:03:25.829Z,26.80
2019-06-01T09:04:25.142Z,27.28
2019-06-01T09:05:26.800Z,27.72
2019-06-01T09:06:25.028Z,27.60
2019-06-01T09:07:24.940Z,27.70
2019-06-01T09:08:25.594Z,27.02
2019-06-01T09:09:24.940Z,27.49
2019-06-01T09:10:25.226Z,27.39
2019-06-01T09:11:25.069Z,27.77
2019-06-01T09:12:25.091Z,28.11
2019-06-01T09:13:25.136Z,28.56
2019-06-01T09:14:25.201Z,28.46
2019-06-01T09:15:25.586Z,28.81
2019-06-01T09:16:25.341Z,29.06
2019-06-01T09:17:25.265Z,29.04
2019-06-01T09:18:25.619Z,29.21
2019-06-01T09:19:25.321Z,28.90
2019-06-01T09:20:25.387Z,28.25
2019-06-01T09:21:25.267Z,28.07
2019-06-01T09:22:25.285Z,28.00
2019-06-01T09:23:23.856Z,28.24
2019-06-01T09:24:23.792Z,28.44
2019-06-01T09:25:23.721Z,28.76
2019-06-01T09:26:23.655Z,28.67
2019-06-01T09:27:23.648Z,28.90
2019-06-01T09:28:23.521Z,29.14
2019-06-01T09:29:23.461Z,29.52
2019-06-01T09:30:23.392Z,29.37
2019-06-01T09:31:23.318Z,29.37
2019-06-01T09:32:23.256Z,29.09
2019-06-01T09:33:23.193Z,29.12
2019-06-01T09:34:23.121Z,28.81
2019-06-01T09:35:23.057Z,28.76
2019-06-01T09:36:22.994Z,28.55
2019-06-01T09:37:22.918Z,28.70
2019-06-01T09:38:22.857Z,28.83
2019-06-01T09:39:22.794Z,28.77
2019-06-01T09:40:22.719Z,28.56
2019-06-01T09:41:22.659Z,28.85
2019-06-01T09:42:22.594Z,28.37
2019-06-01T09:43:22.520Z,28.19
2019-06-01T09:44:22.457Z,28.09
2019-06-01T09:45:22.394Z,27.70
2019-06-01T09:46:22.319Z,27.40
2019-06-01T09:47:22.264Z,27.85
2019-06-01T09:48:22.182Z,27.88
2019-06-01T09:49:22.122Z,27.50
2019-06-01T09:50:22.059Z,27.04
2019-06-01T09:51:21.984Z,27.02
2019-06-01T09:52:21.926Z,27.04
2019-06-01T09:53:21.850Z,27.49
2019-06-01T09:54:21.784Z,27.62
2019-06-01T09:55:21.709Z,27.14
2019-06-01T09:56:21.654Z,26.65
2019-06-01T09:57:21.658Z,26.92
2019-06-01T09:58:21.518Z,27.57
2019-06-01T09:59:21.442Z,27.90
2019-06-01T10:00:21.370Z,27.62
2019-06-01T10:01:21.308Z,27.27
2019-06-01T10:02:21.297Z,28.06
2019-06-01T10:03:21.159Z,28.40
2019-06-01T10:04:21.093Z,28.55
2019-06-01T10:05:21.021Z,29.00
2019-06-01T10:06:20.946Z,28.80
2019-06-01T10:07:20.884Z,28.64
2019-06-01T10:08:20.810Z,28.31
2019-06-01T10:09:20.743Z,28.22
2019-06-01T10:10:20.671Z,27.79
2019-06-01T10:11:20.601Z,27.78
2019-06-01T10:12:20.706Z,27.74
2019-06-01T10:13:20.461Z,27.50
2019-06-01T10:14:20.400Z,27.17
2019-06-01T10:15:20.335Z,27.07
2019-06-01T10:16:20.253Z,27.07
2019-06-01T10:17:20.187Z,27.21
2019-06-01T10:18:20.111Z,27.02
2019-06-01T10:19:20.043Z,26.88
2019-06-01T10:20:19.973Z,26.73
2019-06-01T10:21:19.898Z,26.76
2019-06-01T10:22:19.836Z,26.69
2019-06-01T10:23:19.761Z,26.69
2019-06-01T10:24:19.688Z,26.75
2019-06-01T10:25:19.623Z,26.77
2019-06-01T10:26:19.550Z,27.06
2019-06-01T10:27:19.475Z,27.14
2019-06-01T10:28:19.415Z,27.31
2019-06-01T10:29:19.337Z,27.65
2019-06-01T10:30:19.261Z,27.81
2019-06-01T10:31:19.190Z,27.93
2019-06-01T10:32:19.123Z,27.85
2019-06-01T10:33:19.052Z,28.06
2019-06-01T10:34:18.975Z,27.82
2019-06-01T10:35:18.916Z,28.07
2019-06-01T10:36:21.160Z,28.12
2019-06-01T10:37:18.762Z,27.60
2019-06-01T10:38:18.755Z,27.54
2019-06-01T10:39:19.756Z,27.19
2019-06-01T10:40:18.550Z,27.94
2019-06-01T10:41:18.489Z,28.59
2019-06-01T10:42:18.415Z,29.06
2019-06-01T10:43:18.338Z,29.52
2019-06-01T10:44:18.282Z,29.83
2019-06-01T10:45:18.201Z,29.79
2019-06-01T10:46:18.127Z,29.60
2019-06-01T10:47:18.069Z,30.11
2019-06-01T10:48:17.993Z,30.39
2019-06-01T10:49:17.926Z,30.53
2019-06-01T10:50:17.876Z,30.73
2019-06-01T10:51:17.789Z,31.07
2019-06-01T10:52:17.715Z,31.39
2019-06-01T10:53:17.652Z,31.44
2019-06-01T10:54:17.628Z,31.50
2019-06-01T10:55:17.526Z,32.07
2019-06-01T10:56:17.441Z,32.07
2019-06-01T10:57:17.376Z,32.43
2019-06-01T10:58:17.320Z,32.33
2019-06-01T10:59:17.239Z,32.40
2019-06-01T11:00:17.176Z,32.72
2019-06-01T11:01:17.119Z,31.86
2019-06-01T11:02:17.052Z,31.93
2019-06-01T11:03:16.977Z,31.57
2019-06-01T11:04:16.914Z,31.51
2019-06-01T11:05:16.858Z,30.80
2019-06-01T11:06:16.790Z,30.32
2019-06-01T11:07:16.727Z,29.52
2019-06-01T11:08:16.659Z,28.71
2019-06-01T11:09:16.596Z,29.30
2019-06-01T11:10:16.527Z,29.61
2019-06-01T11:11:16.467Z,30.42
2019-06-01T11:12:16.404Z,30.89
2019-06-01T11:13:16.329Z,31.02
2019-06-01T11:14:16.266Z,30.62
2019-06-01T11:15:16.203Z,30.53
2019-06-01T11:16:16.142Z,30.98
2019-06-01T11:17:16.068Z,29.97
2019-06-01T11:18:16.004Z,29.19
2019-06-01T11:19:15.942Z,28.80
2019-06-01T11:20:15.879Z,28.95
2019-06-01T11:21:15.806Z,29.90
2019-06-01T11:22:15.742Z,30.75
2019-06-01T11:23:15.680Z,31.26
2019-06-01T11:24:15.617Z,31.62
2019-06-01T11:25:15.542Z,31.48
2019-06-01T11:26:15.492Z,32.07
2019-06-01T11:27:15.482Z,32.18
2019-06-01T11:28:15.405Z,31.84
2019-06-01T11:29:15.294Z,32.03
2019-06-01T11:30:15.221Z,32.06
2019-06-01T11:31:15.155Z,32.10
2019-06-01T11:32:15.096Z,32.55
2019-06-01T11:33:15.035Z,32.26
2019-06-01T11:34:14.966Z,32.06
2019-06-01T11:35:14.894Z,32.26
2019-06-01T11:36:14.830Z,32.40
2019-06-01T11:37:15.782Z,32.41
2019-06-01T11:38:14.707Z,32.96
2019-06-01T11:39:14.646Z,31.75
2019-06-01T11:40:14.575Z,31.47
2019-06-01T11:41:18.340Z,32.10
2019-06-01T11:42:14.445Z,32.25
2019-06-01T11:43:14.402Z,32.13
2019-06-01T11:44:14.321Z,32.04
2019-06-01T11:45:14.261Z,32.22
2019-06-01T11:46:14.183Z,31.31
2019-06-01T11:47:14.121Z,31.84
2019-06-01T11:48:14.060Z,31.99
2019-06-01T11:49:14.000Z,31.99
2019-06-01T11:50:13.933Z,32.19
2019-06-01T11:51:13.884Z,32.06
2019-06-01T11:52:13.809Z,32.44
2019-06-01T11:53:13.733Z,32.62
2019-06-01T11:54:13.671Z,32.72
2019-06-01T11:55:13.607Z,32.66
2019-06-01T11:56:13.545Z,33.15
2019-06-01T11:57:13.485Z,33.59
2019-06-01T11:58:13.428Z,33.97
2019-06-01T11:59:13.360Z,33.98
2019-06-01T12:00:13.296Z,34.00
2019-06-01T12:01:13.222Z,33.98
2019-06-01T12:02:13.160Z,32.78
2019-06-01T12:03:13.098Z,32.87
2019-06-01T12:04:13.033Z,32.77
2019-06-01T12:05:12.972Z,32.78
2019-06-01T12:06:12.911Z,32.07
2019-06-01T12:07:17.569Z,31.65
2019-06-01T12:08:12.784Z,32.08
2019-06-01T12:09:12.722Z,32.25
2019-06-01T12:10:12.660Z,32.66
2019-06-01T12:11:12.585Z,33.00
2019-06-01T12:12:12.522Z,33.22
2019-06-01T12:13:12.460Z,32.62
2019-06-01T12:14:12.411Z,32.51
2019-06-01T12:15:12.334Z,32.81
2019-06-01T12:16:12.273Z,33.28
2019-06-01T12:17:12.210Z,33.09
2019-06-01T12:18:12.149Z,33.21
2019-06-01T12:19:12.085Z,32.65
2019-06-01T12:20:12.036Z,32.69
2019-06-01T12:21:11.960Z,32.51
2019-06-01T12:22:11.898Z,32.88
2019-06-01T12:23:11.824Z,32.99
2019-06-01T12:24:11.766Z,33.44
2019-06-01T12:25:11.711Z,33.23
2019-06-01T12:26:11.648Z,32.21
2019-06-01T12:27:11.574Z,31.65
2019-06-01T12:28:11.511Z,31.80
2019-06-01T12:29:11.449Z,31.73
2019-06-01T12:30:11.392Z,32.21
2019-06-01T12:31:11.324Z,32.51
2019-06-01T12:32:11.262Z,32.92
2019-06-01T12:33:11.188Z,33.49
2019-06-01T12:34:11.124Z,33.94
2019-06-01T12:35:11.076Z,34.61
2019-06-01T12:36:11.008Z,34.50
2019-06-01T12:37:10.952Z,34.70
2019-06-01T12:38:10.876Z,33.97
2019-06-01T12:39:10.812Z,34.06
2019-06-01T12:40:10.756Z,34.09
2019-06-01T12:41:10.688Z,34.24
2019-06-01T12:42:10.631Z,34.19
2019-06-01T12:43:10.564Z,34.53
2019-06-01T12:44:10.501Z,34.05
2019-06-01T12:45:10.441Z,34.53
2019-06-01T12:46:10.375Z,34.58
2019-06-01T12:47:10.312Z,34.10
2019-06-01T12:48:10.280Z,33.94
2019-06-01T12:49:10.176Z,33.72
2019-06-01T12:50:10.121Z,33.60
2019-06-01T12:51:10.052Z,33.59